This is the latest recevied weather packets stored in our database for station/object E27ASY-4. If no packets are shown the sender has not sent any weather packets the latest 10 day(s).
| Time | Temp. | Humidity | Pressure | Rain* | Wind** | Luminosity | Snow |
|---|---|---|---|---|---|---|---|
| 1777961843 | 39.44° C | 43% | 1006 hPa | - | - | 0 W/m² | - |
| 1777961521 | 39.44° C | 44% | 1006 hPa | - | - | 0 W/m² | - |
| 1777961199 | 38.89° C | 45% | 1006 hPa | - | - | 0 W/m² | - |
| 1777960876 | 38.33° C | 47% | 1007 hPa | - | - | 0 W/m² | - |
| 1777960555 | 38.33° C | 47% | 1007 hPa | - | - | 0 W/m² | - |
| 1777960232 | 37.78° C | 49% | 1007 hPa | - | - | 0 W/m² | - |
| 1777959911 | 37.78° C | 48% | 1007 hPa | - | - | 0 W/m² | - |
| 1777959589 | 38.33° C | 46% | 1007 hPa | - | - | 0 W/m² | - |
| 1777959267 | 38.89° C | 46% | 1007 hPa | - | - | 0 W/m² | - |
| 1777958944 | 38.89° C | 46% | 1007 hPa | - | - | 0 W/m² | - |
| 1777958623 | 38.89° C | 45% | 1007 hPa | - | - | 0 W/m² | - |
| 1777958301 | 38.89° C | 46% | 1008 hPa | - | - | 0 W/m² | - |
| 1777957978 | 38.89° C | 46% | 1008 hPa | - | - | 0 W/m² | - |
| 1777957657 | 38.89° C | 47% | 1008 hPa | - | - | 0 W/m² | - |
| 1777957334 | 38.89° C | 48% | 1008 hPa | - | - | 0 W/m² | - |
| 1777957013 | 38.33° C | 50% | 1008 hPa | - | - | 0 W/m² | - |
| 1777956691 | 38.33° C | 49% | 1008 hPa | - | - | 0 W/m² | - |
| 1777956369 | 37.78° C | 50% | 1008 hPa | - | - | 0 W/m² | - |
| 1777956046 | 38.89° C | 47% | 1008 hPa | - | - | 0 W/m² | - |
| 1777955725 | 38.33° C | 52% | 1008 hPa | - | - | 0 W/m² | - |
| 1777955402 | 38.33° C | 50% | 1008 hPa | - | - | 0 W/m² | - |
| 1777955081 | 37.78° C | 57% | 1008 hPa | - | - | 0 W/m² | - |
| 1777954759 | 37.22° C | 54% | 1008 hPa | - | - | 0 W/m² | - |
| 1777954437 | 37.22° C | 60% | 1008 hPa | - | - | 0 W/m² | - |
| 1777954115 | 37.78° C | 60% | 1008 hPa | - | - | 0 W/m² | - |
* Rain since midnight (hover to see other rain measurements)
** Current wind speed in m/s (hover to see current wind gust speed)